createdAt,value
2022-07-28T00:02:21.077Z,17.53
2022-07-28T00:04:48.095Z,17.48
2022-07-28T00:07:14.887Z,17.43
2022-07-28T00:09:41.525Z,17.44
2022-07-28T00:12:08.694Z,17.38
2022-07-28T00:14:35.642Z,17.37
2022-07-28T00:17:02.592Z,17.40
2022-07-28T00:19:29.263Z,17.44
2022-07-28T00:21:55.909Z,17.48
2022-07-28T00:24:24.212Z,17.48
2022-07-28T00:26:50.839Z,17.46
2022-07-28T00:29:17.681Z,17.32
2022-07-28T00:31:44.409Z,17.26
2022-07-28T00:34:12.361Z,17.26
2022-07-28T00:36:39.425Z,17.18
2022-07-28T00:39:06.448Z,17.11
2022-07-28T00:41:33.427Z,17.05
2022-07-28T00:44:00.091Z,17.08
2022-07-28T00:46:27.127Z,17.06
2022-07-28T00:48:55.268Z,16.99
2022-07-28T00:51:25.588Z,16.99
2022-07-28T00:53:53.022Z,16.97
2022-07-28T00:56:20.576Z,16.97
2022-07-28T00:58:48.248Z,16.93
2022-07-28T01:01:17.852Z,16.93
2022-07-28T01:03:48.155Z,16.93
2022-07-28T01:06:36.672Z,16.94
2022-07-28T01:09:42.273Z,16.88
2022-07-28T01:12:41.075Z,16.79
2022-07-28T01:15:25.526Z,16.72
2022-07-28T01:18:16.980Z,16.72
2022-07-28T01:21:20.899Z,16.73
2022-07-28T01:24:16.810Z,16.76
2022-07-28T01:27:05.980Z,16.69
2022-07-28T01:30:11.031Z,16.63
2022-07-28T01:32:46.184Z,16.64
2022-07-28T01:35:41.651Z,16.59
2022-07-28T01:38:11.651Z,16.61
2022-07-28T01:40:40.760Z,16.59
2022-07-28T01:43:13.355Z,16.55
2022-07-28T01:45:42.634Z,16.60
2022-07-28T01:48:11.339Z,16.68
2022-07-28T01:50:40.716Z,16.73
2022-07-28T01:53:12.006Z,16.71
2022-07-28T01:55:39.695Z,16.75
2022-07-28T01:58:07.741Z,16.73
2022-07-28T02:00:35.476Z,16.68
2022-07-28T02:03:06.046Z,16.66
2022-07-28T02:05:35.305Z,16.69
2022-07-28T02:08:05.356Z,16.72
2022-07-28T02:10:33.343Z,16.63
2022-07-28T02:13:01.876Z,16.61
2022-07-28T02:15:31.417Z,16.68
2022-07-28T02:17:59.725Z,16.62
2022-07-28T02:20:26.523Z,16.66
2022-07-28T02:22:54.105Z,16.62
2022-07-28T02:25:21.810Z,16.61
2022-07-28T02:27:57.200Z,16.58
2022-07-28T02:30:38.354Z,16.54
2022-07-28T02:33:14.913Z,16.47
2022-07-28T02:36:10.157Z,16.41
2022-07-28T02:38:51.012Z,16.39
2022-07-28T02:41:27.360Z,16.38
2022-07-28T02:43:58.170Z,16.39
2022-07-28T02:46:29.201Z,16.38
2022-07-28T02:49:03.369Z,16.35
2022-07-28T02:51:33.252Z,16.34
2022-07-28T02:54:01.220Z,16.33
2022-07-28T02:56:30.279Z,16.25
2022-07-28T02:58:58.626Z,16.25
2022-07-28T03:01:25.838Z,16.20
2022-07-28T03:03:55.362Z,16.21
2022-07-28T03:06:28.415Z,16.21
2022-07-28T03:08:56.711Z,16.22
2022-07-28T03:11:23.324Z,16.19
2022-07-28T03:13:49.953Z,16.20
2022-07-28T03:16:16.725Z,16.20
2022-07-28T03:18:43.512Z,16.16
2022-07-28T03:21:10.279Z,16.17
2022-07-28T03:23:47.903Z,16.21
2022-07-28T03:26:21.223Z,16.27
2022-07-28T03:28:48.888Z,16.28
2022-07-28T03:31:16.832Z,16.33
2022-07-28T03:33:43.577Z,16.24
2022-07-28T03:36:15.670Z,16.21
2022-07-28T03:39:02.950Z,16.15
2022-07-28T03:41:32.322Z,16.12
2022-07-28T03:44:00.411Z,16.08
2022-07-28T03:46:28.193Z,16.13
2022-07-28T03:48:55.445Z,16.13
2022-07-28T03:51:22.764Z,16.13
2022-07-28T03:53:49.663Z,16.12
2022-07-28T03:56:16.480Z,16.17
2022-07-28T03:58:43.175Z,16.25
2022-07-28T04:01:09.867Z,16.22
2022-07-28T04:03:43.887Z,16.20
2022-07-28T04:06:15.642Z,16.25
2022-07-28T04:08:43.539Z,16.22
2022-07-28T04:11:10.242Z,16.17
2022-07-28T04:13:37.382Z,16.20
2022-07-28T04:16:05.142Z,16.20
2022-07-28T04:18:32.028Z,16.27
2022-07-28T04:20:58.787Z,16.27
2022-07-28T04:23:25.583Z,16.31
2022-07-28T04:25:52.298Z,16.28
2022-07-28T04:28:19.028Z,16.20
2022-07-28T04:30:45.977Z,16.26
2022-07-28T04:33:12.928Z,16.37
2022-07-28T04:35:39.689Z,16.42
2022-07-28T04:38:06.381Z,16.43
2022-07-28T04:40:34.454Z,16.46
2022-07-28T04:43:01.657Z,16.51
2022-07-28T04:45:28.420Z,16.55
2022-07-28T04:47:55.122Z,16.52
2022-07-28T04:50:21.841Z,16.55
2022-07-28T04:52:49.867Z,16.43
2022-07-28T04:55:17.474Z,16.46
2022-07-28T04:57:44.205Z,16.59
2022-07-28T05:00:14.850Z,16.62
2022-07-28T05:02:43.434Z,16.59
2022-07-28T05:05:10.936Z,16.62
2022-07-28T05:07:38.717Z,16.67
2022-07-28T05:10:06.984Z,16.64
2022-07-28T05:12:33.954Z,16.62
2022-07-28T05:15:00.950Z,16.69
2022-07-28T05:17:27.656Z,16.79
2022-07-28T05:19:54.330Z,16.82
2022-07-28T05:22:21.218Z,16.79
2022-07-28T05:24:47.885Z,16.83
2022-07-28T05:27:14.479Z,16.90
2022-07-28T05:29:47.314Z,16.97
2022-07-28T05:32:16.202Z,16.91
2022-07-28T05:34:44.550Z,17.00
2022-07-28T05:37:11.204Z,17.04
2022-07-28T05:39:37.808Z,17.13
2022-07-28T05:42:04.853Z,17.23
2022-07-28T05:44:37.254Z,17.32
2022-07-28T05:47:06.291Z,17.34
2022-07-28T05:49:33.109Z,17.52
2022-07-28T05:51:59.704Z,17.60
2022-07-28T05:54:26.832Z,17.67
2022-07-28T05:56:53.532Z,17.73
2022-07-28T05:59:20.244Z,17.88
2022-07-28T06:01:47.053Z,17.95
2022-07-28T06:04:26.544Z,18.06
2022-07-28T06:06:54.868Z,18.07
2022-07-28T06:09:21.537Z,18.13
2022-07-28T06:11:50.387Z,18.20
2022-07-28T06:14:17.940Z,18.28
2022-07-28T06:16:45.278Z,18.31
2022-07-28T06:19:12.563Z,18.26
2022-07-28T06:21:39.271Z,18.35
2022-07-28T06:24:08.532Z,18.37
2022-07-28T06:26:43.719Z,18.59
2022-07-28T06:29:11.396Z,18.77
2022-07-28T06:31:38.996Z,18.81
2022-07-28T06:34:05.909Z,18.83
2022-07-28T06:36:32.603Z,18.93
2022-07-28T06:38:59.275Z,19.02
2022-07-28T06:41:25.987Z,19.14
2022-07-28T06:43:52.810Z,19.20
2022-07-28T06:46:19.940Z,19.45
2022-07-28T06:48:46.744Z,19.53
2022-07-28T06:51:15.129Z,19.67
2022-07-28T06:53:41.795Z,19.82
2022-07-28T06:56:10.883Z,19.98
2022-07-28T06:58:40.668Z,20.03
2022-07-28T07:01:10.768Z,20.10
2022-07-28T07:03:37.423Z,20.21
2022-07-28T07:06:04.398Z,20.20
2022-07-28T07:08:31.145Z,20.40
2022-07-28T07:10:58.072Z,20.35
2022-07-28T07:13:24.921Z,20.25
2022-07-28T07:15:51.662Z,20.13
2022-07-28T07:18:18.402Z,20.01
2022-07-28T07:20:45.073Z,20.02
2022-07-28T07:23:11.818Z,20.20
2022-07-28T07:25:39.868Z,20.36
2022-07-28T07:28:06.562Z,20.43
2022-07-28T07:30:33.354Z,20.46
2022-07-28T07:33:00.021Z,20.39
2022-07-28T07:35:26.846Z,20.39
2022-07-28T07:37:56.065Z,20.49
2022-07-28T07:40:22.708Z,20.54
2022-07-28T07:42:49.400Z,20.69
2022-07-28T07:45:16.036Z,20.66
2022-07-28T07:47:42.678Z,20.72
2022-07-28T07:50:09.572Z,20.79
2022-07-28T07:52:36.239Z,20.92
2022-07-28T07:55:03.815Z,20.97
2022-07-28T07:57:30.519Z,20.98
2022-07-28T07:59:57.162Z,21.28
2022-07-28T08:02:23.813Z,21.54
2022-07-28T08:04:50.591Z,21.58
2022-07-28T08:07:17.898Z,21.62
2022-07-28T08:09:48.717Z,21.67
2022-07-28T08:12:15.360Z,21.67
2022-07-28T08:14:42.183Z,21.56
2022-07-28T08:17:14.635Z,21.52
2022-07-28T08:19:41.518Z,21.48
2022-07-28T08:22:08.217Z,21.52
2022-07-28T08:24:34.986Z,21.60
2022-07-28T08:27:05.365Z,21.54
2022-07-28T08:29:32.493Z,21.39
2022-07-28T08:31:59.248Z,21.45
2022-07-28T08:34:31.201Z,21.39
2022-07-28T08:37:01.329Z,21.40
2022-07-28T08:39:28.060Z,21.53
2022-07-28T08:42:12.103Z,21.69
2022-07-28T08:44:54.845Z,21.73
2022-07-28T08:47:22.296Z,21.80
2022-07-28T08:49:50.028Z,21.86
2022-07-28T08:52:20.552Z,22.04
2022-07-28T08:54:49.598Z,22.04
2022-07-28T08:57:20.353Z,22.04
2022-07-28T08:59:49.007Z,22.05
2022-07-28T09:02:16.301Z,22.10
2022-07-28T09:04:46.204Z,22.11
2022-07-28T09:07:13.491Z,22.14
2022-07-28T09:12:07.200Z,22.21
2022-07-28T09:14:34.596Z,22.27
2022-07-28T09:17:02.735Z,22.36
2022-07-28T09:19:34.064Z,22.43
2022-07-28T09:22:02.353Z,22.43
2022-07-28T09:24:44.449Z,22.51
2022-07-28T09:27:13.362Z,22.57
2022-07-28T09:29:42.051Z,22.62
2022-07-28T09:32:09.017Z,22.69
2022-07-28T09:34:46.733Z,22.69
2022-07-28T09:37:28.607Z,22.63
2022-07-28T09:39:59.639Z,22.72
2022-07-28T09:42:26.546Z,22.81
2022-07-28T09:45:22.258Z,22.89
2022-07-28T09:47:50.104Z,22.88
2022-07-28T09:50:21.915Z,22.88
2022-07-28T09:52:48.675Z,22.92
2022-07-28T09:55:15.405Z,23.01
2022-07-28T09:57:45.781Z,23.10
2022-07-28T10:00:28.293Z,23.17
2022-07-28T10:02:55.610Z,23.31
2022-07-28T10:05:22.404Z,23.42
2022-07-28T10:07:52.954Z,23.44
2022-07-28T10:10:22.671Z,23.50
2022-07-28T10:12:49.400Z,23.44
2022-07-28T10:15:36.702Z,23.53
2022-07-28T10:18:05.095Z,23.64
2022-07-28T10:20:33.052Z,23.68
2022-07-28T10:23:09.481Z,23.68
2022-07-28T10:25:40.459Z,23.75
2022-07-28T10:28:10.199Z,23.75
2022-07-28T10:30:40.070Z,23.90
2022-07-28T10:33:13.886Z,23.97
2022-07-28T10:35:54.242Z,24.09
2022-07-28T10:38:23.921Z,24.02
2022-07-28T10:40:52.439Z,24.06
2022-07-28T10:43:20.243Z,24.09
2022-07-28T10:46:05.073Z,24.17
2022-07-28T10:48:33.794Z,24.21
2022-07-28T10:51:01.411Z,24.31
2022-07-28T10:54:00.119Z,24.34
2022-07-28T10:56:41.335Z,24.35
2022-07-28T10:59:39.547Z,24.49
2022-07-28T11:02:06.482Z,24.57
2022-07-28T11:04:52.291Z,24.70
2022-07-28T11:07:20.667Z,24.65
2022-07-28T11:09:47.609Z,24.64
2022-07-28T11:12:18.007Z,24.71
2022-07-28T11:14:44.991Z,24.74
2022-07-28T11:17:16.996Z,24.76
2022-07-28T11:20:16.896Z,24.79
2022-07-28T11:22:42.787Z,24.80
2022-07-28T11:25:19.577Z,24.73
2022-07-28T11:28:08.742Z,24.71
2022-07-28T11:30:53.339Z,24.75
2022-07-28T11:33:20.560Z,24.92
2022-07-28T11:35:47.327Z,24.96
2022-07-28T11:38:14.719Z,25.03
2022-07-28T11:40:50.018Z,25.08
2022-07-28T11:43:36.876Z,25.15
2022-07-28T11:46:24.957Z,25.16
2022-07-28T11:49:16.876Z,25.15
2022-07-28T11:52:07.177Z,25.15
2022-07-28T11:54:35.609Z,25.30
2022-07-28T11:57:04.211Z,25.23
2022-07-28T11:59:44.439Z,25.26
2022-07-28T12:02:27.031Z,25.36
2022-07-28T12:04:59.010Z,25.42
2022-07-28T12:07:32.893Z,25.44
2022-07-28T12:10:00.383Z,25.45
2022-07-28T12:12:30.579Z,25.42
2022-07-28T12:15:00.926Z,25.50
2022-07-28T12:17:34.157Z,25.52
2022-07-28T12:20:11.577Z,25.53
2022-07-28T12:22:40.982Z,25.59
2022-07-28T12:25:13.367Z,25.60
2022-07-28T12:27:40.564Z,25.67
2022-07-28T12:30:13.600Z,25.73
2022-07-28T12:32:42.344Z,25.72
2022-07-28T12:35:09.680Z,25.69
2022-07-28T12:37:36.442Z,25.73
2022-07-28T12:40:03.570Z,25.86
2022-07-28T12:42:33.197Z,25.85
2022-07-28T12:45:03.460Z,25.85
2022-07-28T12:47:31.531Z,25.88
2022-07-28T12:50:15.752Z,25.95
2022-07-28T12:52:43.850Z,25.97
2022-07-28T12:55:29.231Z,25.89
2022-07-28T12:57:55.923Z,25.93
2022-07-28T13:00:26.311Z,26.03
2022-07-28T13:02:56.266Z,26.04
2022-07-28T13:05:58.326Z,26.07
2022-07-28T13:08:27.594Z,26.08
2022-07-28T13:10:58.640Z,26.06
2022-07-28T13:13:26.774Z,26.09
2022-07-28T13:16:22.290Z,26.13
2022-07-28T13:18:54.195Z,26.21
2022-07-28T13:21:57.143Z,26.19
2022-07-28T13:24:27.774Z,26.28
2022-07-28T13:26:55.082Z,26.31
2022-07-28T13:29:22.546Z,26.26
2022-07-28T13:31:49.437Z,26.35
2022-07-28T13:34:16.725Z,26.35
2022-07-28T13:36:43.675Z,26.33
2022-07-28T13:39:14.236Z,26.31
2022-07-28T13:41:57.276Z,26.38
2022-07-28T13:44:25.746Z,26.35
2022-07-28T13:46:53.265Z,26.29
2022-07-28T13:49:22.798Z,26.35
2022-07-28T13:51:51.244Z,26.37
2022-07-28T13:54:19.028Z,26.42
2022-07-28T13:56:46.574Z,26.47
2022-07-28T13:59:13.780Z,26.52
2022-07-28T14:01:42.468Z,26.60
2022-07-28T14:04:16.776Z,26.63
2022-07-28T14:06:45.363Z,26.67
2022-07-28T14:09:13.022Z,26.73
2022-07-28T14:11:49.932Z,26.78
2022-07-28T14:14:20.440Z,26.91
2022-07-28T14:16:54.536Z,26.89
2022-07-28T14:19:38.289Z,26.71
2022-07-28T14:22:12.194Z,26.73
2022-07-28T14:24:39.066Z,26.83
2022-07-28T14:27:05.742Z,26.80
2022-07-28T14:29:32.867Z,26.89
2022-07-28T14:31:59.620Z,26.95
2022-07-28T14:34:26.416Z,27.03
2022-07-28T14:36:53.175Z,27.10
2022-07-28T14:39:20.190Z,27.22
2022-07-28T14:41:46.928Z,27.28
2022-07-28T14:44:24.545Z,27.24
2022-07-28T14:46:51.857Z,27.24
2022-07-28T14:49:18.947Z,27.14
2022-07-28T14:51:45.967Z,27.07
2022-07-28T14:54:13.198Z,27.06
2022-07-28T14:56:40.386Z,27.08
2022-07-28T14:59:07.274Z,27.10
2022-07-28T15:01:35.990Z,27.05
2022-07-28T15:04:03.219Z,27.01
2022-07-28T15:06:29.887Z,26.99
2022-07-28T15:08:57.844Z,26.97
2022-07-28T15:11:24.872Z,27.05
2022-07-28T15:13:51.736Z,27.01
2022-07-28T15:16:18.606Z,27.03
2022-07-28T15:18:45.359Z,26.98
2022-07-28T15:21:16.507Z,26.95
2022-07-28T15:23:43.691Z,26.97
2022-07-28T15:26:10.849Z,26.94
2022-07-28T15:28:37.826Z,26.93
2022-07-28T15:31:06.700Z,26.94
2022-07-28T15:33:41.104Z,26.85
2022-07-28T15:36:15.828Z,26.86
2022-07-28T15:38:47.036Z,26.90
2022-07-28T15:41:15.118Z,26.94
2022-07-28T15:43:42.248Z,26.94
2022-07-28T15:46:11.757Z,26.86
2022-07-28T15:48:41.558Z,26.82
2022-07-28T15:51:09.091Z,26.77
2022-07-28T15:53:36.669Z,26.82
2022-07-28T15:56:04.495Z,26.77
2022-07-28T15:58:31.573Z,26.74
2022-07-28T16:01:01.021Z,26.76
2022-07-28T16:03:29.476Z,26.74
2022-07-28T16:05:56.328Z,26.63
2022-07-28T16:08:23.897Z,26.66
2022-07-28T16:10:52.973Z,26.55
2022-07-28T16:13:36.203Z,26.51
2022-07-28T16:16:12.571Z,26.52
2022-07-28T16:18:42.477Z,26.47
2022-07-28T16:21:10.704Z,26.41
2022-07-28T16:23:37.423Z,26.36
2022-07-28T16:26:07.781Z,26.26
2022-07-28T16:28:34.985Z,26.25
2022-07-28T16:31:01.753Z,26.25
2022-07-28T16:33:33.101Z,26.19
2022-07-28T16:36:00.451Z,26.06
2022-07-28T16:38:27.343Z,26.04
2022-07-28T16:40:54.072Z,26.03
2022-07-28T16:43:20.772Z,26.05
2022-07-28T16:45:47.384Z,26.03
2022-07-28T16:48:14.094Z,25.96
2022-07-28T16:50:45.783Z,25.91
2022-07-28T16:53:13.849Z,25.85
2022-07-28T16:55:42.223Z,25.82
2022-07-28T16:58:09.146Z,25.74
2022-07-28T17:00:36.006Z,25.74
2022-07-28T17:03:02.722Z,25.68
2022-07-28T17:05:29.424Z,25.61
2022-07-28T17:07:56.133Z,25.62
2022-07-28T17:10:26.431Z,25.55
2022-07-28T17:12:54.606Z,25.48
2022-07-28T17:15:22.861Z,25.42
2022-07-28T17:17:53.254Z,25.38
2022-07-28T17:20:20.929Z,25.34
2022-07-28T17:22:48.089Z,25.29
2022-07-28T17:28:02.014Z,25.25
2022-07-28T17:30:30.364Z,25.18
2022-07-28T17:32:59.238Z,25.09
2022-07-28T17:35:34.196Z,25.04
2022-07-28T17:38:03.634Z,24.97
2022-07-28T17:40:30.900Z,24.88
2022-07-28T17:42:57.636Z,24.83
2022-07-28T17:45:24.845Z,24.79
2022-07-28T17:47:52.297Z,24.69
2022-07-28T17:50:19.417Z,24.56
2022-07-28T17:52:46.669Z,24.49
2022-07-28T17:55:55.729Z,24.46
2022-07-28T17:58:26.295Z,24.38
2022-07-28T18:00:58.058Z,24.40
2022-07-28T18:03:27.285Z,24.31
2022-07-28T18:05:54.289Z,24.36
2022-07-28T18:08:21.130Z,24.26
2022-07-28T18:10:50.519Z,24.22
2022-07-28T18:13:17.926Z,24.17
2022-07-28T18:15:44.846Z,24.14
2022-07-28T18:18:11.700Z,24.10
2022-07-28T18:20:39.045Z,24.06
2022-07-28T18:23:07.033Z,24.02
2022-07-28T18:25:34.649Z,24.01
2022-07-28T18:28:01.707Z,23.98
2022-07-28T18:30:29.171Z,23.97
2022-07-28T18:32:55.981Z,23.91
2022-07-28T18:35:23.123Z,23.86
2022-07-28T18:37:50.253Z,23.80
2022-07-28T18:40:18.626Z,23.75
2022-07-28T18:42:46.322Z,23.71
2022-07-28T18:45:13.709Z,23.67
2022-07-28T18:47:47.341Z,23.65
2022-07-28T18:50:28.009Z,23.59
2022-07-28T18:52:59.189Z,23.55
2022-07-28T18:55:26.055Z,23.50
2022-07-28T18:57:52.705Z,23.46
2022-07-28T19:00:19.613Z,23.45
2022-07-28T19:02:46.412Z,23.40
2022-07-28T19:05:13.235Z,23.40
2022-07-28T19:07:40.067Z,23.37
2022-07-28T19:10:07.623Z,23.32
2022-07-28T19:12:34.540Z,23.27
2022-07-28T19:15:01.731Z,23.24
2022-07-28T19:17:28.930Z,23.19
2022-07-28T19:19:56.333Z,23.15
2022-07-28T19:22:24.041Z,23.10
2022-07-28T19:24:51.933Z,23.08
2022-07-28T19:27:19.221Z,23.09
2022-07-28T19:29:45.943Z,23.04
2022-07-28T19:32:12.693Z,23.01
2022-07-28T19:34:39.417Z,22.98
2022-07-28T19:37:06.627Z,22.97
2022-07-28T19:39:34.502Z,22.95
2022-07-28T19:42:01.200Z,22.83
2022-07-28T19:44:30.099Z,22.80
2022-07-28T19:47:00.455Z,22.75
2022-07-28T19:49:27.246Z,22.73
2022-07-28T19:51:54.946Z,22.67
2022-07-28T19:54:23.271Z,22.65
2022-07-28T19:56:50.137Z,22.66
2022-07-28T19:59:16.846Z,22.64
2022-07-28T20:01:46.689Z,22.59
2022-07-28T20:04:13.809Z,22.59
2022-07-28T20:06:40.531Z,22.60
2022-07-28T20:09:07.246Z,22.55
2022-07-28T20:11:33.996Z,22.53
2022-07-28T20:14:01.094Z,22.52
2022-07-28T20:16:28.207Z,22.54
2022-07-28T20:18:56.820Z,22.51
2022-07-28T20:21:24.893Z,22.46
2022-07-28T20:23:55.054Z,22.42
2022-07-28T20:26:23.748Z,22.39
2022-07-28T20:28:50.810Z,22.34
2022-07-28T20:31:17.614Z,22.29
2022-07-28T20:33:44.579Z,22.23
2022-07-28T20:36:11.272Z,22.19
2022-07-28T20:38:39.498Z,22.21
2022-07-28T20:41:07.315Z,22.17
2022-07-28T20:43:36.439Z,22.11
2022-07-28T20:46:05.331Z,21.99
2022-07-28T20:48:32.264Z,21.93
2022-07-28T20:50:58.909Z,21.95
2022-07-28T20:53:25.503Z,21.91
2022-07-28T20:55:52.136Z,21.95
2022-07-28T20:58:18.785Z,21.96
2022-07-28T21:00:45.518Z,21.95
2022-07-28T21:03:12.239Z,21.94
2022-07-28T21:05:39.220Z,21.91
2022-07-28T21:08:09.298Z,21.90
2022-07-28T21:10:42.735Z,21.86
2022-07-28T21:13:09.351Z,21.90
2022-07-28T21:15:36.107Z,21.83
2022-07-28T21:18:03.012Z,21.83
2022-07-28T21:20:30.013Z,21.81
2022-07-28T21:22:56.721Z,21.82
2022-07-28T21:25:23.449Z,21.80
2022-07-28T21:28:08.803Z,21.74
2022-07-28T21:30:35.481Z,21.73
2022-07-28T21:33:02.175Z,21.77
2022-07-28T21:35:29.498Z,21.67
2022-07-28T21:37:56.356Z,21.67
2022-07-28T21:40:23.202Z,21.67
2022-07-28T21:42:49.977Z,21.69
2022-07-28T21:45:16.836Z,21.68
2022-07-28T21:47:43.615Z,21.66
2022-07-28T21:50:10.908Z,21.66
2022-07-28T21:52:38.646Z,21.65
2022-07-28T21:55:07.114Z,21.63
2022-07-28T21:57:34.630Z,21.59
2022-07-28T22:00:02.211Z,21.63
2022-07-28T22:02:28.877Z,21.64
2022-07-28T22:04:55.894Z,21.66
2022-07-28T22:07:22.607Z,21.69
2022-07-28T22:09:49.243Z,21.62
2022-07-28T22:12:15.874Z,21.58
2022-07-28T22:14:42.630Z,21.60
2022-07-28T22:17:09.447Z,21.56
2022-07-28T22:19:37.079Z,21.55
2022-07-28T22:22:04.016Z,21.57
2022-07-28T22:24:30.716Z,21.56
2022-07-28T22:26:57.657Z,21.54
2022-07-28T22:29:25.028Z,21.54
2022-07-28T22:31:54.788Z,21.54
2022-07-28T22:34:25.877Z,21.56
2022-07-28T22:36:52.795Z,21.55
2022-07-28T22:39:19.719Z,21.56
2022-07-28T22:41:47.959Z,21.55
2022-07-28T22:44:15.220Z,21.48
2022-07-28T22:46:42.108Z,21.47
2022-07-28T22:49:09.221Z,21.43
2022-07-28T22:51:35.942Z,21.43
2022-07-28T22:54:02.571Z,21.40
2022-07-28T22:56:36.382Z,21.41
2022-07-28T22:59:04.779Z,21.42
2022-07-28T23:01:31.583Z,21.45
2022-07-28T23:03:58.516Z,21.48
2022-07-28T23:06:25.279Z,21.45
2022-07-28T23:08:51.988Z,21.44
2022-07-28T23:11:18.679Z,21.47
2022-07-28T23:13:45.354Z,21.47
2022-07-28T23:16:13.971Z,21.47
2022-07-28T23:18:42.086Z,21.49
2022-07-28T23:21:09.049Z,21.51
2022-07-28T23:23:35.872Z,21.47
2022-07-28T23:26:03.535Z,21.48
2022-07-28T23:28:30.567Z,21.45
2022-07-28T23:30:57.675Z,21.39
2022-07-28T23:33:55.290Z,21.38
2022-07-28T23:36:17.025Z,21.32
2022-07-28T23:38:53.838Z,21.20
2022-07-28T23:41:20.511Z,21.12
2022-07-28T23:43:47.167Z,21.08
2022-07-28T23:46:13.849Z,21.04
2022-07-28T23:48:40.609Z,20.95
2022-07-28T23:51:07.347Z,20.94
2022-07-28T23:53:37.403Z,20.89
2022-07-28T23:56:04.482Z,20.83
2022-07-28T23:58:31.148Z,20.78
